createdAt,value
2023-05-01T00:00:53.020Z,8.38
2023-05-01T00:06:40.084Z,8.60
2023-05-01T00:12:27.138Z,8.10
2023-05-01T00:18:14.702Z,9.63
2023-05-01T00:24:02.700Z,9.18
2023-05-01T00:29:50.843Z,8.95
2023-05-01T00:35:44.281Z,8.25
2023-05-01T00:41:34.110Z,8.93
2023-05-01T00:47:21.503Z,9.23
2023-05-01T00:53:08.517Z,9.95
2023-05-01T00:58:56.833Z,9.63
2023-05-01T01:04:48.716Z,9.05
2023-05-01T01:10:50.061Z,8.57
2023-05-01T01:16:41.899Z,9.68
2023-05-01T01:22:29.621Z,9.20
2023-05-01T01:28:43.764Z,8.95
2023-05-01T01:34:36.359Z,9.10
2023-05-01T01:46:13.041Z,8.55
2023-05-01T01:52:03.394Z,9.57
2023-05-01T01:57:51.730Z,7.88
2023-05-01T02:03:41.402Z,9.52
2023-05-01T02:09:29.812Z,8.55
2023-05-01T02:15:19.096Z,9.40
2023-05-01T02:21:06.938Z,9.30
2023-05-01T02:27:22.046Z,9.35
2023-05-01T02:33:09.162Z,9.85
2023-05-01T02:38:56.184Z,8.40
2023-05-01T02:44:51.026Z,9.07
2023-05-01T02:50:40.752Z,10.00
2023-05-01T02:56:28.085Z,9.63
2023-05-01T03:02:15.903Z,9.95
2023-05-01T03:08:04.239Z,9.77
2023-05-01T03:13:51.285Z,9.55
2023-05-01T03:19:37.993Z,9.77
2023-05-01T03:25:27.707Z,10.00
2023-05-01T03:31:14.570Z,10.68
2023-05-01T03:37:02.232Z,10.52
2023-05-01T03:42:49.152Z,10.40
2023-05-01T03:48:40.629Z,9.93
2023-05-01T03:54:29.992Z,10.73
2023-05-01T04:00:19.497Z,9.83
2023-05-01T04:06:07.927Z,9.02
2023-05-01T04:11:54.840Z,8.75
2023-05-01T04:17:46.377Z,9.85
2023-05-01T04:23:34.819Z,8.10
2023-05-01T04:29:22.040Z,7.15
2023-05-01T04:35:09.635Z,5.40
2023-05-01T04:40:59.794Z,4.90
2023-05-01T04:46:46.720Z,4.07
2023-05-01T04:52:35.972Z,3.72
2023-05-01T04:58:25.593Z,3.63
2023-05-01T05:04:18.804Z,3.53
2023-05-01T05:10:09.736Z,3.30
2023-05-01T05:15:57.283Z,4.47
2023-05-01T05:21:45.850Z,3.88
2023-05-01T05:27:37.898Z,2.90
2023-05-01T05:33:25.404Z,3.70
2023-05-01T05:39:15.550Z,2.65
2023-05-01T05:45:02.554Z,3.70
2023-05-01T05:50:51.163Z,1.85
2023-05-01T05:56:38.060Z,2.00
2023-05-01T06:02:26.530Z,2.33
2023-05-01T06:08:14.616Z,2.45
2023-05-01T06:14:02.869Z,2.50
2023-05-01T06:19:54.193Z,3.25
2023-05-01T06:25:41.421Z,2.25
2023-05-01T06:31:28.350Z,2.40
2023-05-01T06:37:23.512Z,2.55
2023-05-01T06:43:14.769Z,2.30
2023-05-01T06:49:03.012Z,2.40
2023-05-01T06:54:58.932Z,2.25
2023-05-01T07:00:47.084Z,3.05
2023-05-01T07:06:35.909Z,2.17
2023-05-01T07:12:23.545Z,2.60
2023-05-01T07:18:14.554Z,2.38
2023-05-01T07:24:05.765Z,2.42
2023-05-01T07:29:56.266Z,1.95
2023-05-01T07:35:53.519Z,2.28
2023-05-01T07:41:49.790Z,2.08
2023-05-01T07:47:41.729Z,1.88
2023-05-01T07:53:42.822Z,2.20
2023-05-01T07:59:38.099Z,1.80
2023-05-01T08:05:35.624Z,2.10
2023-05-01T08:11:30.208Z,2.47
2023-05-01T08:17:21.326Z,1.58
2023-05-01T08:23:13.290Z,2.47
2023-05-01T08:29:00.131Z,2.22
2023-05-01T08:34:57.413Z,2.42
2023-05-01T08:47:18.264Z,2.03
2023-05-01T08:53:14.507Z,2.53
2023-05-01T08:59:07.073Z,2.37
2023-05-01T09:04:58.053Z,2.40
2023-05-01T09:10:48.225Z,2.90
2023-05-01T09:16:36.594Z,2.38
2023-05-01T09:22:27.073Z,2.05
2023-05-01T09:34:04.744Z,2.25
2023-05-01T09:40:11.133Z,1.90
2023-05-01T09:46:13.259Z,2.88
2023-05-01T09:52:11.864Z,2.72
2023-05-01T09:58:01.691Z,2.97
2023-05-01T10:03:55.110Z,2.63
2023-05-01T10:09:42.393Z,2.47
2023-05-01T10:15:39.920Z,2.20
2023-05-01T10:21:28.592Z,2.40
2023-05-01T10:27:18.900Z,2.72
2023-05-01T10:33:06.074Z,2.50
2023-05-01T10:38:55.704Z,2.80
2023-05-01T10:44:43.232Z,2.13
2023-05-01T10:50:34.968Z,2.35
2023-05-01T10:56:23.890Z,2.03
2023-05-01T11:02:23.367Z,2.05
2023-05-01T11:08:33.359Z,2.22
2023-05-01T11:14:20.765Z,1.58
2023-05-01T11:20:09.267Z,1.67
2023-05-01T11:26:05.715Z,1.75
2023-05-01T11:31:52.907Z,1.42
2023-05-01T11:37:44.630Z,2.25
2023-05-01T11:43:31.861Z,1.77
2023-05-01T11:49:28.212Z,1.27
2023-05-01T11:55:16.967Z,1.20
2023-05-01T12:01:08.348Z,1.02
2023-05-01T12:07:00.315Z,1.50
2023-05-01T12:12:59.485Z,1.33
2023-05-01T12:18:49.238Z,1.73
2023-05-01T12:24:56.695Z,0.98
2023-05-01T12:36:41.103Z,1.45
2023-05-01T12:42:40.496Z,1.23
2023-05-01T12:48:52.364Z,1.25
2023-05-01T12:54:50.601Z,0.60
2023-05-01T13:00:55.838Z,0.20
2023-05-01T13:06:43.374Z,0.52
2023-05-01T13:13:04.086Z,0.80
2023-05-01T13:18:52.952Z,0.90
2023-05-01T13:24:41.727Z,1.15
2023-05-01T13:30:34.752Z,0.82
2023-05-01T13:36:26.385Z,1.50
2023-05-01T13:48:11.046Z,1.13
2023-05-01T13:53:58.293Z,0.95
2023-05-01T13:59:49.212Z,1.00
2023-05-01T14:05:37.027Z,1.40
2023-05-01T14:11:23.884Z,1.95
2023-05-01T14:17:16.638Z,1.70
2023-05-01T14:23:10.663Z,1.30
2023-05-01T14:29:01.278Z,1.50
2023-05-01T14:34:50.370Z,1.17
2023-05-01T14:40:40.463Z,1.58
2023-05-01T14:46:33.978Z,1.35
2023-05-01T14:52:21.568Z,1.63
2023-05-01T14:58:08.746Z,2.70
2023-05-01T15:03:56.100Z,0.70
2023-05-01T15:09:44.524Z,1.15
2023-05-01T15:15:31.923Z,1.05
2023-05-01T15:21:18.913Z,0.90
2023-05-01T15:27:09.823Z,0.77
2023-05-01T15:32:57.433Z,0.70
2023-05-01T15:38:44.989Z,1.20
2023-05-01T15:44:35.339Z,0.90
2023-05-01T15:50:24.496Z,0.73
2023-05-01T15:56:15.302Z,0.80
2023-05-01T16:02:02.920Z,0.70
2023-05-01T16:07:58.023Z,0.50
2023-05-01T16:13:51.225Z,0.68
2023-05-01T16:19:42.462Z,0.75
2023-05-01T16:25:32.380Z,1.70
2023-05-01T16:31:27.088Z,0.90
2023-05-01T16:37:18.321Z,0.90
2023-05-01T16:43:07.305Z,0.90
2023-05-01T16:49:00.494Z,1.13
2023-05-01T16:54:57.018Z,1.13
2023-05-01T17:00:44.007Z,0.90
2023-05-01T17:06:33.492Z,1.27
2023-05-01T17:12:27.680Z,1.10
2023-05-01T17:18:15.992Z,1.25
2023-05-01T17:24:03.321Z,1.60
2023-05-01T17:29:52.166Z,1.05
2023-05-01T17:35:46.082Z,1.20
2023-05-01T17:41:37.421Z,1.48
2023-05-01T17:47:26.042Z,1.25
2023-05-01T17:53:13.261Z,1.27
2023-05-01T17:59:00.168Z,0.80
2023-05-01T18:04:50.332Z,1.10
2023-05-01T18:10:37.543Z,1.00
2023-05-01T18:16:26.782Z,1.70
2023-05-01T18:22:14.045Z,1.65
2023-05-01T18:28:00.951Z,6.55
2023-05-01T18:33:48.657Z,4.03
2023-05-01T18:39:44.801Z,2.40
2023-05-01T18:45:37.681Z,1.27
2023-05-01T18:51:33.422Z,1.30
2023-05-01T18:57:23.391Z,2.65
2023-05-01T19:03:19.872Z,3.53
2023-05-01T19:09:08.828Z,3.55
2023-05-01T19:14:56.116Z,2.22
2023-05-01T19:20:46.404Z,1.98
2023-05-01T19:26:48.505Z,3.22
2023-05-01T19:32:36.346Z,3.30
2023-05-01T19:38:26.230Z,4.13
2023-05-01T19:44:15.700Z,4.40
2023-05-01T19:50:02.730Z,6.80
2023-05-01T19:55:49.626Z,6.57
2023-05-01T20:01:45.174Z,5.68
2023-05-01T20:07:32.429Z,6.75
2023-05-01T20:13:19.215Z,6.32
2023-05-01T20:19:06.580Z,7.85
2023-05-01T20:24:53.271Z,4.72
2023-05-01T20:30:41.814Z,6.05
2023-05-01T20:36:33.022Z,5.82
2023-05-01T20:42:20.182Z,2.88
2023-05-01T20:48:09.780Z,3.30
2023-05-01T20:54:04.367Z,3.50
2023-05-01T20:59:55.562Z,3.50
2023-05-01T21:05:43.162Z,7.65
2023-05-01T21:11:33.015Z,2.67
2023-05-01T21:17:23.763Z,2.38
2023-05-01T21:23:21.250Z,2.47
2023-05-01T21:29:08.351Z,2.67
2023-05-01T21:34:55.227Z,2.33
2023-05-01T21:40:43.168Z,2.90
2023-05-01T21:46:33.188Z,2.22
2023-05-01T21:52:20.277Z,5.38
2023-05-01T21:58:11.217Z,2.50
2023-05-01T22:04:00.202Z,2.33
2023-05-01T22:09:55.292Z,3.33
2023-05-01T22:15:42.069Z,2.47
2023-05-01T22:21:41.900Z,2.08
2023-05-01T22:27:29.687Z,2.00
2023-05-01T22:33:17.916Z,1.90
2023-05-01T22:39:07.880Z,2.05
2023-05-01T22:44:55.163Z,1.80
2023-05-01T22:50:44.972Z,2.15
2023-05-01T22:56:31.779Z,1.98
2023-05-01T23:02:20.739Z,1.90
2023-05-01T23:08:11.527Z,1.40
2023-05-01T23:13:58.832Z,1.83
2023-05-01T23:19:45.812Z,2.47
2023-05-01T23:25:32.793Z,1.35
2023-05-01T23:31:27.506Z,1.80
2023-05-01T23:37:14.472Z,1.60
2023-05-01T23:43:01.185Z,1.40
2023-05-01T23:48:48.102Z,1.58
2023-05-01T23:54:34.793Z,1.60
